createdAt,value
2018-07-22T00:00:46.728Z,10.77
2018-07-22T00:03:16.309Z,12.07
2018-07-22T00:05:45.161Z,13.90
2018-07-22T00:08:14.010Z,16.00
2018-07-22T00:10:43.612Z,14.00
2018-07-22T00:13:12.456Z,10.98
2018-07-22T00:15:41.314Z,11.10
2018-07-22T00:18:10.172Z,10.85
2018-07-22T00:20:39.036Z,12.75
2018-07-22T00:23:07.891Z,11.30
2018-07-22T00:25:36.732Z,12.45
2018-07-22T00:28:05.578Z,12.23
2018-07-22T00:30:34.430Z,14.10
2018-07-22T00:33:04.013Z,12.00
2018-07-22T00:38:02.729Z,14.82
2018-07-22T00:40:32.304Z,13.07
2018-07-22T00:43:01.162Z,18.35
2018-07-22T00:45:30.008Z,15.68
2018-07-22T00:47:59.589Z,14.75
2018-07-22T00:50:28.441Z,15.52
2018-07-22T00:52:57.285Z,16.47
2018-07-22T00:55:26.135Z,13.83
2018-07-22T00:57:54.974Z,14.53
2018-07-22T01:00:23.818Z,14.20
2018-07-22T01:02:52.657Z,12.50
2018-07-22T01:05:21.507Z,12.07
2018-07-22T01:07:50.351Z,14.75
2018-07-22T01:10:19.195Z,13.13
2018-07-22T01:12:48.040Z,12.83
2018-07-22T01:15:16.887Z,14.57
2018-07-22T01:17:45.729Z,13.60
2018-07-22T01:20:14.565Z,12.60
2018-07-22T01:22:43.414Z,12.77
2018-07-22T01:25:12.254Z,13.20
2018-07-22T01:27:41.850Z,13.20
2018-07-22T01:30:10.692Z,13.97
2018-07-22T01:32:39.539Z,13.30
2018-07-22T01:35:08.393Z,12.80
2018-07-22T01:37:37.230Z,14.48
2018-07-22T01:40:06.077Z,12.67
2018-07-22T01:42:34.920Z,12.33
2018-07-22T01:45:03.766Z,12.53
2018-07-22T01:47:32.603Z,12.97
2018-07-22T01:50:01.454Z,12.30
2018-07-22T01:52:30.301Z,12.77
2018-07-22T01:54:59.141Z,13.93
2018-07-22T01:57:28.722Z,12.37
2018-07-22T01:59:57.575Z,12.20
2018-07-22T02:02:26.414Z,12.90
2018-07-22T02:04:55.268Z,11.40
2018-07-22T02:07:24.107Z,12.00
2018-07-22T02:09:52.947Z,13.80
2018-07-22T02:12:21.790Z,13.60
2018-07-22T02:14:51.372Z,12.07
2018-07-22T02:17:20.215Z,15.55
2018-07-22T02:19:49.063Z,12.63
2018-07-22T02:22:17.908Z,12.00
2018-07-22T02:24:46.771Z,12.40
2018-07-22T02:27:15.604Z,12.70
2018-07-22T02:29:44.444Z,13.60
2018-07-22T02:32:13.293Z,11.60
2018-07-22T02:34:42.141Z,14.03
2018-07-22T02:37:10.986Z,14.00
2018-07-22T02:39:40.428Z,11.60
2018-07-22T02:42:09.270Z,13.45
2018-07-22T02:44:38.112Z,11.57
2018-07-22T02:47:06.954Z,12.50
2018-07-22T02:49:35.799Z,12.20
2018-07-22T02:52:04.643Z,10.90
2018-07-22T02:54:34.245Z,11.40
2018-07-22T02:57:03.087Z,10.77
2018-07-22T02:59:31.925Z,11.33
2018-07-22T03:02:00.770Z,11.90
2018-07-22T03:04:29.612Z,11.67
2018-07-22T03:06:59.196Z,11.77
2018-07-22T03:09:28.038Z,11.03
2018-07-22T03:11:56.873Z,9.23
2018-07-22T03:14:25.715Z,13.00
2018-07-22T03:16:54.557Z,11.40
2018-07-22T03:19:23.407Z,12.33
2018-07-22T03:21:52.251Z,12.77
2018-07-22T03:24:21.104Z,11.80
2018-07-22T03:29:11.136Z,13.82
2018-07-22T03:31:40.733Z,13.33
2018-07-22T03:34:09.568Z,15.10
2018-07-22T03:36:38.410Z,13.33
2018-07-22T03:39:07.260Z,13.00
2018-07-22T03:41:36.096Z,13.73
2018-07-22T03:44:05.688Z,14.80
2018-07-22T03:46:34.532Z,15.90
2018-07-22T03:49:03.373Z,16.07
2018-07-22T03:51:32.210Z,14.77
2018-07-22T03:54:01.055Z,14.17
2018-07-22T03:56:29.904Z,13.97
2018-07-22T03:58:58.742Z,13.27
2018-07-22T04:01:28.337Z,16.10
2018-07-22T04:03:57.215Z,15.25
2018-07-22T04:06:26.060Z,15.77
2018-07-22T04:08:54.892Z,14.17
2018-07-22T04:11:23.742Z,14.40
2018-07-22T04:13:52.620Z,14.60
2018-07-22T04:16:22.208Z,13.30
2018-07-22T04:18:51.053Z,14.60
2018-07-22T04:21:19.907Z,14.33
2018-07-22T04:23:48.766Z,12.17
2018-07-22T04:26:17.618Z,13.25
2018-07-22T04:28:46.459Z,10.80
2018-07-22T04:31:15.300Z,11.40
2018-07-22T04:33:44.173Z,12.37
2018-07-22T04:36:13.016Z,12.47
2018-07-22T04:38:41.875Z,11.40
2018-07-22T04:41:10.723Z,10.17
2018-07-22T04:43:39.559Z,9.87
2018-07-22T04:46:08.394Z,9.80
2018-07-22T04:48:37.232Z,9.80
2018-07-22T04:51:06.070Z,9.10
2018-07-22T04:53:34.945Z,8.20
2018-07-22T04:56:04.491Z,9.50
2018-07-22T04:58:33.329Z,9.30
2018-07-22T05:01:02.182Z,10.97
2018-07-22T05:03:31.032Z,12.50
2018-07-22T05:05:59.900Z,11.57
2018-07-22T05:08:28.754Z,11.80
2018-07-22T05:10:57.599Z,9.93
2018-07-22T05:13:26.439Z,11.70
2018-07-22T05:15:55.290Z,10.67
2018-07-22T05:18:24.136Z,10.47
2018-07-22T05:20:53.001Z,9.90
2018-07-22T05:23:21.847Z,10.43
2018-07-22T05:25:50.698Z,10.07
2018-07-22T05:28:19.593Z,8.93
2018-07-22T05:30:48.383Z,10.00
2018-07-22T05:33:17.220Z,9.43
2018-07-22T05:35:46.110Z,9.13
2018-07-22T05:38:14.901Z,9.80
2018-07-22T05:40:43.754Z,10.27
2018-07-22T05:43:12.592Z,10.13
2018-07-22T05:45:41.443Z,10.63
2018-07-22T05:48:11.015Z,9.53
2018-07-22T05:50:39.860Z,10.82
2018-07-22T05:53:10.110Z,10.10
2018-07-22T05:55:38.959Z,10.87
2018-07-22T05:58:07.843Z,10.83
2018-07-22T06:00:36.646Z,11.30
2018-07-22T06:03:05.545Z,12.27
2018-07-22T06:05:34.337Z,11.90
2018-07-22T06:08:03.187Z,12.63
2018-07-22T06:10:32.031Z,12.20
2018-07-22T06:13:00.877Z,12.50
2018-07-22T06:15:30.467Z,13.60
2018-07-22T06:17:59.308Z,14.57
2018-07-22T06:20:28.180Z,14.07
2018-07-22T06:22:57.039Z,13.95
2018-07-22T06:25:25.879Z,12.80
2018-07-22T06:27:54.723Z,14.20
2018-07-22T06:30:23.582Z,14.43
2018-07-22T06:32:52.420Z,15.25
2018-07-22T06:35:21.315Z,15.27
2018-07-22T06:37:50.116Z,16.25
2018-07-22T06:40:18.974Z,12.60
2018-07-22T06:42:48.564Z,10.68
2018-07-22T06:45:17.429Z,11.52
2018-07-22T06:47:46.284Z,11.02
2018-07-22T06:50:15.123Z,10.80
2018-07-22T06:52:43.960Z,12.18
2018-07-22T06:55:13.573Z,12.68
2018-07-22T06:57:43.160Z,11.12
2018-07-22T07:00:12.025Z,12.45
2018-07-22T07:02:40.868Z,13.05
2018-07-22T07:05:09.746Z,12.18
2018-07-22T07:07:38.567Z,12.73
2018-07-22T07:10:07.431Z,12.82
2018-07-22T07:12:36.288Z,13.55
2018-07-22T07:15:05.140Z,14.18
2018-07-22T07:17:33.996Z,13.98
2018-07-22T07:20:03.593Z,13.88
2018-07-22T07:22:32.441Z,15.65
2018-07-22T07:25:01.281Z,14.13
2018-07-22T07:27:30.878Z,14.38
2018-07-22T07:29:59.719Z,14.80
2018-07-22T07:32:28.565Z,14.15
2018-07-22T07:34:58.162Z,14.75
2018-07-22T07:37:27.010Z,15.25
2018-07-22T07:39:55.857Z,14.13
2018-07-22T07:42:24.801Z,13.95
2018-07-22T07:44:53.609Z,15.73
2018-07-22T07:47:22.443Z,14.82
2018-07-22T07:49:51.293Z,15.57
2018-07-22T07:52:20.148Z,13.98
2018-07-22T07:54:48.996Z,15.35
2018-07-22T07:57:17.848Z,15.40
2018-07-22T07:59:46.696Z,16.75
2018-07-22T08:02:15.546Z,16.05
2018-07-22T08:04:44.399Z,15.60
2018-07-22T08:07:13.247Z,15.38
2018-07-22T08:09:42.097Z,16.27
2018-07-22T08:12:10.946Z,19.83
2018-07-22T08:14:39.793Z,14.82
2018-07-22T08:17:08.637Z,15.18
2018-07-22T08:19:37.486Z,15.68
2018-07-22T08:22:07.097Z,18.20
2018-07-22T08:24:35.920Z,18.40
2018-07-22T08:27:04.770Z,19.25
2018-07-22T08:29:33.622Z,20.10
2018-07-22T08:32:02.488Z,20.83
2018-07-22T08:34:31.346Z,18.27
2018-07-22T08:37:00.768Z,18.30
2018-07-22T08:39:30.356Z,19.08
2018-07-22T08:41:59.215Z,17.02
2018-07-22T08:44:28.064Z,18.33
2018-07-22T08:46:56.917Z,17.75
2018-07-22T08:49:25.759Z,17.58
2018-07-22T08:51:54.599Z,17.62
2018-07-22T08:54:24.047Z,18.23
2018-07-22T08:56:52.909Z,18.58
2018-07-22T08:59:22.495Z,19.73
2018-07-22T09:01:51.365Z,19.87
2018-07-22T09:04:20.226Z,21.40
2018-07-22T09:06:49.068Z,17.77
2018-07-22T09:09:17.927Z,18.50
2018-07-22T09:11:46.780Z,23.90
2018-07-22T09:14:15.629Z,20.10
2018-07-22T09:16:44.504Z,20.73
2018-07-22T09:19:13.347Z,24.30
2018-07-22T09:21:42.196Z,19.95
2018-07-22T09:24:11.057Z,18.02
2018-07-22T09:26:39.897Z,16.40
2018-07-22T09:29:09.499Z,19.35
2018-07-22T09:31:39.092Z,18.92
2018-07-22T09:34:07.954Z,20.00
2018-07-22T09:36:36.861Z,22.45
2018-07-22T09:39:05.689Z,20.55
2018-07-22T09:41:34.531Z,18.27
2018-07-22T09:44:03.393Z,18.50
2018-07-22T09:46:32.247Z,17.98
2018-07-22T09:49:01.868Z,20.17
2018-07-22T09:51:30.678Z,19.23
2018-07-22T09:53:59.521Z,19.20
2018-07-22T09:56:28.363Z,19.55
2018-07-22T09:58:57.220Z,18.77
2018-07-22T10:01:26.070Z,19.85
2018-07-22T10:03:54.925Z,19.67
2018-07-22T10:06:23.776Z,21.08
2018-07-22T10:08:53.373Z,18.35
2018-07-22T10:11:22.239Z,24.20
2018-07-22T10:13:51.092Z,23.12
2018-07-22T10:16:19.933Z,20.10
2018-07-22T10:18:48.795Z,20.12
2018-07-22T10:21:17.631Z,21.98
2018-07-22T10:23:47.223Z,18.25
2018-07-22T10:26:16.086Z,19.20
2018-07-22T10:28:44.986Z,19.95
2018-07-22T10:31:13.805Z,23.73
2018-07-22T10:33:42.641Z,16.60
2018-07-22T10:36:11.489Z,20.62
2018-07-22T10:38:41.076Z,20.20
2018-07-22T10:41:10.060Z,17.67
2018-07-22T10:43:38.790Z,19.80
2018-07-22T10:46:07.633Z,20.17
2018-07-22T10:48:36.495Z,20.62
2018-07-22T10:51:05.400Z,19.15
2018-07-22T10:53:34.203Z,22.27
2018-07-22T10:56:03.056Z,20.23
2018-07-22T10:58:31.905Z,19.23
2018-07-22T11:01:01.508Z,21.25
2018-07-22T11:03:30.350Z,21.08
2018-07-22T11:05:59.201Z,18.33
2018-07-22T11:08:28.051Z,18.73
2018-07-22T11:10:56.898Z,18.55
2018-07-22T11:13:25.754Z,20.42
2018-07-22T11:15:54.610Z,19.23
2018-07-22T11:18:23.467Z,19.10
2018-07-22T11:20:52.341Z,18.08
2018-07-22T11:23:21.170Z,17.83
2018-07-22T11:25:50.025Z,15.48
2018-07-22T11:28:18.878Z,18.37
2018-07-22T11:30:47.727Z,17.08
2018-07-22T11:33:16.572Z,19.33
2018-07-22T11:35:46.165Z,17.02
2018-07-22T11:38:15.008Z,15.13
2018-07-22T11:40:43.852Z,17.77
2018-07-22T11:43:13.485Z,17.40
2018-07-22T11:45:42.338Z,18.27
2018-07-22T11:48:11.186Z,17.73
2018-07-22T11:50:40.045Z,15.35
2018-07-22T11:53:08.891Z,17.12
2018-07-22T11:55:37.736Z,17.48
2018-07-22T11:58:06.590Z,16.73
2018-07-22T12:00:35.439Z,17.08
2018-07-22T12:03:04.292Z,18.10
2018-07-22T12:05:33.132Z,14.48
2018-07-22T12:08:01.977Z,17.00
2018-07-22T12:10:31.572Z,14.95
2018-07-22T12:13:01.172Z,16.10
2018-07-22T12:15:30.030Z,15.75
2018-07-22T12:17:58.904Z,17.65
2018-07-22T12:20:27.758Z,17.52
2018-07-22T12:22:56.622Z,17.12
2018-07-22T12:25:25.474Z,17.02
2018-07-22T12:27:54.467Z,17.90
2018-07-22T12:30:23.316Z,15.38
2018-07-22T12:32:52.910Z,16.67
2018-07-22T12:35:21.786Z,18.00
2018-07-22T12:37:50.594Z,18.02
2018-07-22T12:40:19.442Z,18.90
2018-07-22T12:42:48.283Z,16.15
2018-07-22T12:45:17.141Z,16.15
2018-07-22T12:47:45.983Z,18.02
2018-07-22T12:50:14.880Z,17.25
2018-07-22T12:52:43.681Z,15.55
2018-07-22T12:55:12.531Z,14.87
2018-07-22T12:57:41.393Z,14.95
2018-07-22T13:00:10.239Z,14.70
2018-07-22T13:02:39.101Z,13.80
2018-07-22T13:05:08.716Z,14.73
2018-07-22T13:07:38.307Z,14.15
2018-07-22T13:10:07.164Z,14.30
2018-07-22T13:12:36.021Z,13.35
2018-07-22T13:15:04.873Z,13.38
2018-07-22T13:17:33.740Z,18.33
2018-07-22T13:20:02.604Z,16.55
2018-07-22T13:22:31.444Z,13.52
2018-07-22T13:25:00.305Z,12.00
2018-07-22T13:27:29.170Z,11.45
2018-07-22T13:29:58.001Z,16.00
2018-07-22T13:32:26.847Z,13.75
2018-07-22T13:34:55.689Z,13.95
2018-07-22T13:37:24.534Z,15.68
2018-07-22T13:39:53.386Z,12.15
2018-07-22T13:42:22.984Z,11.93
2018-07-22T13:44:51.835Z,12.80
2018-07-22T13:47:20.689Z,13.45
2018-07-22T13:49:49.541Z,12.43
2018-07-22T13:52:18.381Z,13.50
2018-07-22T13:54:47.225Z,13.05
2018-07-22T13:57:16.063Z,12.95
2018-07-22T13:59:45.670Z,11.63
2018-07-22T14:02:15.260Z,11.27
2018-07-22T14:04:44.852Z,10.57
2018-07-22T14:07:13.742Z,10.63
2018-07-22T14:09:42.550Z,10.50
2018-07-22T14:12:11.400Z,12.37
2018-07-22T14:14:40.288Z,11.32
2018-07-22T14:17:09.888Z,13.70
2018-07-22T14:19:38.744Z,11.30
2018-07-22T14:22:07.598Z,10.27
2018-07-22T14:24:37.183Z,11.45
2018-07-22T14:27:06.024Z,11.30
2018-07-22T14:29:34.882Z,10.13
2018-07-22T14:32:03.734Z,10.98
2018-07-22T14:34:32.566Z,9.32
2018-07-22T14:37:02.160Z,9.38
2018-07-22T14:39:31.005Z,10.15
2018-07-22T14:41:59.848Z,10.43
2018-07-22T14:44:29.423Z,9.38
2018-07-22T14:46:58.291Z,9.65
2018-07-22T14:49:27.118Z,9.55
2018-07-22T14:51:55.952Z,9.75
2018-07-22T14:54:25.536Z,11.40
2018-07-22T14:56:54.367Z,9.88
2018-07-22T14:59:23.211Z,10.43
2018-07-22T15:01:52.056Z,12.52
2018-07-22T15:04:20.907Z,18.23
2018-07-22T15:06:50.497Z,15.20
2018-07-22T15:09:19.362Z,43.73
2018-07-22T15:11:48.202Z,26.90
2018-07-22T15:14:17.772Z,31.52
2018-07-22T15:16:46.617Z,34.63
2018-07-22T15:19:15.480Z,28.20
2018-07-22T15:21:44.320Z,22.10
2018-07-22T15:24:13.159Z,21.23
2018-07-22T15:26:42.751Z,19.00
2018-07-22T15:29:11.646Z,20.75
2018-07-22T15:31:40.453Z,15.32
2018-07-22T15:34:09.309Z,13.40
2018-07-22T15:36:38.159Z,17.52
2018-07-22T15:39:06.999Z,15.02
2018-07-22T15:41:35.845Z,13.48
2018-07-22T15:44:04.685Z,12.10
2018-07-22T15:46:33.695Z,12.73
2018-07-22T15:49:02.404Z,14.35
2018-07-22T15:51:31.258Z,13.07
2018-07-22T15:54:00.843Z,13.15
2018-07-22T15:56:29.688Z,11.93
2018-07-22T15:58:58.533Z,14.00
2018-07-22T16:01:27.409Z,14.13
2018-07-22T16:03:56.251Z,14.70
2018-07-22T16:06:25.115Z,14.23
2018-07-22T16:08:53.973Z,13.57
2018-07-22T16:11:22.846Z,14.70
2018-07-22T16:13:51.680Z,14.25
2018-07-22T16:16:20.561Z,15.63
2018-07-22T16:18:49.410Z,14.93
2018-07-22T16:21:18.277Z,16.05
2018-07-22T16:23:47.136Z,15.75
2018-07-22T16:26:15.976Z,16.50
2018-07-22T16:28:44.838Z,14.77
2018-07-22T16:31:13.685Z,14.65
2018-07-22T16:33:42.595Z,15.30
2018-07-22T16:36:11.392Z,16.87
2018-07-22T16:38:40.244Z,16.23
2018-07-22T16:41:09.840Z,15.57
2018-07-22T16:43:38.700Z,15.13
2018-07-22T16:46:07.548Z,15.27
2018-07-22T16:48:36.396Z,14.20
2018-07-22T16:51:05.240Z,14.95
2018-07-22T16:53:34.123Z,13.13
2018-07-22T16:56:02.946Z,14.00
2018-07-22T16:58:31.796Z,14.90
2018-07-22T17:01:01.374Z,13.60
2018-07-22T17:03:30.218Z,14.73
2018-07-22T17:05:59.056Z,13.45
2018-07-22T17:08:27.912Z,13.88
2018-07-22T17:10:56.756Z,16.12
2018-07-22T17:13:25.606Z,14.43
2018-07-22T17:15:54.456Z,14.93
2018-07-22T17:18:24.065Z,15.02
2018-07-22T17:20:53.675Z,14.98
2018-07-22T17:23:22.515Z,14.00
2018-07-22T17:25:51.367Z,15.07
2018-07-22T17:28:20.951Z,13.75
2018-07-22T17:30:49.797Z,14.57
2018-07-22T17:33:18.652Z,15.25
2018-07-22T17:35:48.241Z,17.15
2018-07-22T17:38:17.085Z,15.90
2018-07-22T17:40:45.939Z,15.65
2018-07-22T17:43:14.787Z,15.90
2018-07-22T17:45:43.637Z,13.18
2018-07-22T17:48:12.496Z,14.90
2018-07-22T17:50:41.364Z,15.73
2018-07-22T17:53:10.221Z,16.35
2018-07-22T17:55:39.059Z,17.43
2018-07-22T17:58:07.934Z,16.55
2018-07-22T18:00:36.783Z,17.92
2018-07-22T18:03:05.647Z,16.50
2018-07-22T18:05:35.266Z,15.27
2018-07-22T18:08:04.851Z,15.70
2018-07-22T18:10:33.693Z,13.68
2018-07-22T18:13:02.552Z,13.18
2018-07-22T18:15:31.396Z,13.20
2018-07-22T18:18:00.250Z,14.60
2018-07-22T18:20:29.859Z,13.57
2018-07-22T18:22:58.752Z,13.62
2018-07-22T18:25:28.292Z,14.00
2018-07-22T18:27:57.134Z,13.40
2018-07-22T18:30:25.997Z,13.57
2018-07-22T18:32:55.589Z,14.25
2018-07-22T18:35:24.452Z,14.07
2018-07-22T18:37:53.321Z,16.00
2018-07-22T18:40:22.167Z,14.32
2018-07-22T18:42:51.026Z,14.65
2018-07-22T18:45:19.881Z,14.00
2018-07-22T18:47:48.987Z,15.35
2018-07-22T18:50:17.802Z,13.40
2018-07-22T18:52:46.663Z,13.88
2018-07-22T18:55:15.778Z,14.13
2018-07-22T18:57:44.793Z,14.18
2018-07-22T19:00:13.852Z,13.75
2018-07-22T19:02:42.949Z,15.73
2018-07-22T19:05:12.048Z,14.70
2018-07-22T19:07:41.151Z,15.55
2018-07-22T19:10:10.244Z,14.55
2018-07-22T19:12:39.332Z,15.18
2018-07-22T19:15:08.153Z,13.82
2018-07-22T19:17:37.047Z,14.75
2018-07-22T19:20:05.895Z,12.82
2018-07-22T19:22:34.734Z,13.25
2018-07-22T19:25:04.347Z,12.73
2018-07-22T19:27:33.189Z,12.95
2018-07-22T19:30:02.047Z,11.77
2018-07-22T19:32:30.931Z,11.70
2018-07-22T19:34:59.763Z,12.88
2018-07-22T19:37:28.610Z,13.10
2018-07-22T19:39:57.471Z,14.00
2018-07-22T19:42:26.309Z,12.43
2018-07-22T19:44:55.157Z,12.40
2018-07-22T19:47:24.755Z,12.37
2018-07-22T19:49:53.615Z,12.02
2018-07-22T19:52:22.468Z,12.15
2018-07-22T19:54:51.328Z,12.85
2018-07-22T19:57:20.917Z,12.75
2018-07-22T19:59:49.750Z,14.30
2018-07-22T20:02:18.646Z,13.35
2018-07-22T20:04:47.456Z,13.75
2018-07-22T20:07:16.295Z,12.57
2018-07-22T20:09:45.946Z,14.20
2018-07-22T20:12:14.781Z,13.13
2018-07-22T20:14:43.634Z,13.70
2018-07-22T20:17:13.236Z,14.15
2018-07-22T20:19:42.830Z,14.27
2018-07-22T20:22:11.693Z,12.70
2018-07-22T20:24:40.544Z,15.75
2018-07-22T20:27:09.376Z,13.43
2018-07-22T20:29:38.222Z,14.60
2018-07-22T20:32:07.086Z,15.38
2018-07-22T20:34:35.972Z,13.88
2018-07-22T20:37:04.840Z,14.45
2018-07-22T20:39:33.681Z,12.75
2018-07-22T20:42:02.554Z,14.15
2018-07-22T20:44:31.398Z,16.80
2018-07-22T20:47:00.285Z,14.70
2018-07-22T20:49:29.107Z,14.63
2018-07-22T20:51:57.950Z,13.98
2018-07-22T20:54:26.809Z,16.35
2018-07-22T20:56:55.701Z,15.80
2018-07-22T20:59:24.565Z,15.15
2018-07-22T21:01:53.411Z,15.85
2018-07-22T21:04:22.999Z,16.05
2018-07-22T21:06:51.871Z,16.98
2018-07-22T21:09:20.708Z,19.98
2018-07-22T21:11:49.560Z,18.27
2018-07-22T21:14:18.429Z,16.52
2018-07-22T21:16:47.267Z,16.35
2018-07-22T21:19:16.868Z,17.77
2018-07-22T21:21:46.461Z,17.05
2018-07-22T21:24:16.088Z,17.65
2018-07-22T21:26:44.970Z,18.30
2018-07-22T21:29:13.774Z,17.02
2018-07-22T21:31:42.628Z,16.40
2018-07-22T21:34:11.542Z,16.33
2018-07-22T21:36:41.130Z,18.23
2018-07-22T21:39:09.985Z,17.97
2018-07-22T21:41:38.841Z,17.98
2018-07-22T21:44:07.685Z,15.13
2018-07-22T21:46:36.529Z,14.73
2018-07-22T21:49:05.395Z,15.25
2018-07-22T21:51:34.247Z,16.15
2018-07-22T21:54:03.098Z,19.67
2018-07-22T21:56:31.951Z,18.50
2018-07-22T21:59:01.533Z,19.35
2018-07-22T22:01:30.375Z,19.73
2018-07-22T22:03:59.228Z,21.23
2018-07-22T22:06:28.811Z,20.90
2018-07-22T22:08:57.657Z,21.08
2018-07-22T22:11:26.498Z,20.40
2018-07-22T22:13:55.345Z,21.58
2018-07-22T22:16:24.186Z,20.42
2018-07-22T22:18:53.035Z,20.17
2018-07-22T22:21:21.886Z,21.25
2018-07-22T22:23:50.731Z,21.25
2018-07-22T22:26:19.588Z,19.77
2018-07-22T22:28:48.449Z,24.87
2018-07-22T22:31:18.028Z,20.88
2018-07-22T22:33:46.896Z,23.67
2018-07-22T22:36:15.747Z,29.27
2018-07-22T22:38:45.329Z,25.40
2018-07-22T22:41:14.182Z,25.02
2018-07-22T22:43:43.025Z,25.60
2018-07-22T22:46:12.632Z,25.37
2018-07-22T22:48:41.480Z,28.92
2018-07-22T22:51:10.318Z,30.25
2018-07-22T22:53:39.176Z,27.95
2018-07-22T22:56:08.017Z,31.40
2018-07-22T22:58:51.412Z,28.17
2018-07-22T23:01:20.266Z,30.73
2018-07-22T23:03:49.853Z,37.10
2018-07-22T23:06:18.701Z,33.40
2018-07-22T23:08:47.559Z,31.87
2018-07-22T23:11:16.405Z,31.10
2018-07-22T23:13:46.780Z,33.28
2018-07-22T23:16:15.620Z,31.70
2018-07-22T23:18:44.472Z,34.10
2018-07-22T23:21:14.068Z,32.17
2018-07-22T23:23:42.921Z,30.77
2018-07-22T23:26:11.754Z,29.42
2018-07-22T23:28:40.603Z,28.73
2018-07-22T23:31:09.441Z,29.15
2018-07-22T23:33:38.301Z,29.60
2018-07-22T23:36:07.152Z,33.35
2018-07-22T23:38:36.018Z,27.27
2018-07-22T23:41:04.881Z,28.17
2018-07-22T23:43:33.801Z,27.17
2018-07-22T23:46:03.372Z,27.30
2018-07-22T23:48:32.217Z,26.75
2018-07-22T23:51:01.058Z,27.37
2018-07-22T23:53:29.896Z,25.73
2018-07-22T23:55:58.740Z,25.88
2018-07-22T23:58:27.598Z,26.75
